createdAt,value
2022-10-29T00:01:03.005Z,5.50
2022-10-29T00:03:29.995Z,5.93
2022-10-29T00:06:04.603Z,6.67
2022-10-29T00:08:33.118Z,5.90
2022-10-29T00:11:06.235Z,5.83
2022-10-29T00:13:33.634Z,6.20
2022-10-29T00:16:00.618Z,6.57
2022-10-29T00:18:27.582Z,6.40
2022-10-29T00:21:00.903Z,5.67
2022-10-29T00:23:27.904Z,6.20
2022-10-29T00:25:58.637Z,6.37
2022-10-29T00:28:25.962Z,6.17
2022-10-29T00:30:53.096Z,7.00
2022-10-29T00:36:03.798Z,6.77
2022-10-29T00:38:31.703Z,6.60
2022-10-29T00:40:58.984Z,6.00
2022-10-29T00:43:26.713Z,6.83
2022-10-29T00:45:53.670Z,7.23
2022-10-29T00:48:21.466Z,6.67
2022-10-29T00:50:48.869Z,6.73
2022-10-29T00:53:17.210Z,6.73
2022-10-29T00:55:44.383Z,7.87
2022-10-29T00:58:12.014Z,7.53
2022-10-29T01:00:39.118Z,7.40
2022-10-29T01:03:06.992Z,7.23
2022-10-29T01:05:35.063Z,7.43
2022-10-29T01:08:02.461Z,7.97
2022-10-29T01:10:34.134Z,7.50
2022-10-29T01:13:12.339Z,7.73
2022-10-29T01:15:58.281Z,7.53
2022-10-29T01:18:40.545Z,8.23
2022-10-29T01:21:35.077Z,7.70
2022-10-29T01:24:04.914Z,7.60
2022-10-29T01:26:50.504Z,8.47
2022-10-29T01:29:17.450Z,8.33
2022-10-29T01:31:44.415Z,7.53
2022-10-29T01:34:20.836Z,7.90
2022-10-29T01:37:08.066Z,8.37
2022-10-29T01:39:42.128Z,7.40
2022-10-29T01:42:24.741Z,7.60
2022-10-29T01:44:54.341Z,8.43
2022-10-29T01:47:22.246Z,7.87
2022-10-29T01:49:51.682Z,7.90
2022-10-29T01:52:19.769Z,8.57
2022-10-29T01:54:47.602Z,7.20
2022-10-29T01:57:29.027Z,9.10
2022-10-29T02:00:06.867Z,9.63
2022-10-29T02:02:48.535Z,8.10
2022-10-29T02:05:44.744Z,7.80
2022-10-29T02:08:30.322Z,8.10
2022-10-29T02:11:08.656Z,8.40
2022-10-29T02:13:38.808Z,8.00
2022-10-29T02:16:07.750Z,7.77
2022-10-29T02:18:48.690Z,7.60
2022-10-29T02:21:16.643Z,7.93
2022-10-29T02:23:43.711Z,8.27
2022-10-29T02:26:10.896Z,8.70
2022-10-29T02:28:37.925Z,7.93
2022-10-29T02:31:05.093Z,8.03
2022-10-29T02:33:32.161Z,8.30
2022-10-29T02:35:59.149Z,8.77
2022-10-29T02:38:26.100Z,8.27
2022-10-29T02:40:53.099Z,7.33
2022-10-29T02:46:09.860Z,7.93
2022-10-29T02:48:36.878Z,7.97
2022-10-29T02:51:03.885Z,7.90
2022-10-29T02:53:30.844Z,7.80
2022-10-29T02:55:57.836Z,8.20
2022-10-29T02:58:24.811Z,7.87
2022-10-29T03:00:52.001Z,8.23
2022-10-29T03:03:19.018Z,7.80
2022-10-29T03:05:48.961Z,7.90
2022-10-29T03:08:16.454Z,7.90
2022-10-29T03:10:43.441Z,7.43
2022-10-29T03:13:10.436Z,6.77
2022-10-29T03:15:37.808Z,7.50
2022-10-29T03:18:05.320Z,7.90
2022-10-29T03:20:32.336Z,8.20
2022-10-29T03:22:59.297Z,7.00
2022-10-29T03:25:26.277Z,7.23
2022-10-29T03:27:53.404Z,7.67
2022-10-29T03:30:20.562Z,7.33
2022-10-29T03:32:48.290Z,7.67
2022-10-29T03:35:16.355Z,6.83
2022-10-29T03:37:43.378Z,7.97
2022-10-29T03:40:10.528Z,7.90
2022-10-29T03:42:38.463Z,7.30
2022-10-29T03:45:05.654Z,7.03
2022-10-29T03:47:33.499Z,7.37
2022-10-29T03:50:00.483Z,7.60
2022-10-29T03:52:27.473Z,7.83
2022-10-29T03:54:54.497Z,7.10
2022-10-29T03:57:21.598Z,7.83
2022-10-29T03:59:51.637Z,7.50
2022-10-29T04:02:20.032Z,8.00
2022-10-29T04:04:47.127Z,8.10
2022-10-29T04:07:14.327Z,7.43
2022-10-29T04:09:41.328Z,7.30
2022-10-29T04:12:08.714Z,7.43
2022-10-29T04:14:37.290Z,7.37
2022-10-29T04:17:07.074Z,6.97
2022-10-29T04:19:34.044Z,7.20
2022-10-29T04:26:34.579Z,7.80
2022-10-29T04:30:22.494Z,7.63
2022-10-29T04:32:49.467Z,7.77
2022-10-29T04:35:16.495Z,7.77
2022-10-29T04:37:43.465Z,7.60
2022-10-29T04:40:10.643Z,7.83
2022-10-29T04:42:38.247Z,7.70
2022-10-29T04:45:05.844Z,7.70
2022-10-29T04:47:32.873Z,7.70
2022-10-29T04:49:59.880Z,8.07
2022-10-29T04:52:26.883Z,8.07
2022-10-29T04:54:53.898Z,7.57
2022-10-29T04:57:20.914Z,7.97
2022-10-29T04:59:47.868Z,8.93
2022-10-29T05:02:14.837Z,8.20
2022-10-29T05:04:41.802Z,8.57
2022-10-29T05:07:08.808Z,8.37
2022-10-29T05:09:35.788Z,9.30
2022-10-29T05:12:02.740Z,7.50
2022-10-29T05:14:29.798Z,7.87
2022-10-29T05:16:56.853Z,7.93
2022-10-29T05:19:23.893Z,7.53
2022-10-29T05:21:50.851Z,9.68
2022-10-29T05:24:17.818Z,8.60
2022-10-29T05:26:44.876Z,8.10
2022-10-29T05:29:11.854Z,8.13
2022-10-29T05:31:38.813Z,8.00
2022-10-29T05:34:05.846Z,8.30
2022-10-29T05:36:32.805Z,7.53
2022-10-29T05:38:59.906Z,8.33
2022-10-29T05:41:26.856Z,8.57
2022-10-29T05:43:53.863Z,7.80
2022-10-29T05:46:20.844Z,8.40
2022-10-29T05:48:47.823Z,8.23
2022-10-29T05:51:14.808Z,9.27
2022-10-29T05:53:41.823Z,9.03
2022-10-29T05:56:08.934Z,9.45
2022-10-29T05:58:35.932Z,9.13
2022-10-29T06:01:06.208Z,9.17
2022-10-29T06:03:33.274Z,8.27
2022-10-29T06:06:00.333Z,8.47
2022-10-29T06:08:27.727Z,8.47
2022-10-29T06:10:54.698Z,8.57
2022-10-29T06:13:22.537Z,8.50
2022-10-29T06:15:50.283Z,8.57
2022-10-29T06:18:17.542Z,8.90
2022-10-29T06:20:44.626Z,9.43
2022-10-29T06:23:11.955Z,8.40
2022-10-29T06:25:38.932Z,9.40
2022-10-29T06:28:07.073Z,8.50
2022-10-29T06:30:34.877Z,8.97
2022-10-29T06:33:02.165Z,8.53
2022-10-29T06:35:29.526Z,8.43
2022-10-29T06:37:56.896Z,8.47
2022-10-29T06:40:24.063Z,9.23
2022-10-29T06:42:51.070Z,8.50
2022-10-29T06:45:18.109Z,7.60
2022-10-29T06:47:46.194Z,7.67
2022-10-29T06:50:14.182Z,8.37
2022-10-29T06:52:41.156Z,8.83
2022-10-29T06:55:08.508Z,7.40
2022-10-29T06:57:35.546Z,8.30
2022-10-29T07:00:07.350Z,7.97
2022-10-29T07:02:35.597Z,7.57
2022-10-29T07:05:03.680Z,7.70
2022-10-29T07:07:30.666Z,7.47
2022-10-29T07:09:58.240Z,8.10
2022-10-29T07:12:25.251Z,8.60
2022-10-29T07:14:52.216Z,8.20
2022-10-29T07:17:19.190Z,8.33
2022-10-29T07:19:46.157Z,7.87
2022-10-29T07:22:13.110Z,8.80
2022-10-29T07:24:40.068Z,8.60
2022-10-29T07:27:07.186Z,8.13
2022-10-29T07:29:35.145Z,8.10
2022-10-29T07:32:02.112Z,8.43
2022-10-29T07:34:29.122Z,9.63
2022-10-29T07:36:56.086Z,8.57
2022-10-29T07:39:23.163Z,8.23
2022-10-29T07:41:51.415Z,9.23
2022-10-29T07:44:20.040Z,7.40
2022-10-29T07:46:47.051Z,8.27
2022-10-29T07:49:13.588Z,7.87
2022-10-29T07:51:42.865Z,7.70
2022-10-29T07:54:17.182Z,7.33
2022-10-29T07:56:49.282Z,6.90
2022-10-29T07:59:21.606Z,7.87
2022-10-29T08:01:50.716Z,7.53
2022-10-29T08:04:17.748Z,7.70
2022-10-29T08:06:44.938Z,7.47
2022-10-29T08:09:12.524Z,7.17
2022-10-29T08:11:39.680Z,6.60
2022-10-29T08:14:06.732Z,7.00
2022-10-29T08:16:34.000Z,7.30
2022-10-29T08:19:01.374Z,7.30
2022-10-29T08:21:28.630Z,7.20
2022-10-29T08:23:56.258Z,6.03
2022-10-29T08:26:23.302Z,7.17
2022-10-29T08:28:50.270Z,6.37
2022-10-29T08:31:17.306Z,7.40
2022-10-29T08:33:44.273Z,7.00
2022-10-29T08:36:11.327Z,7.03
2022-10-29T08:38:38.356Z,7.20
2022-10-29T08:41:17.606Z,6.77
2022-10-29T08:43:47.420Z,6.03
2022-10-29T08:46:25.212Z,6.60
2022-10-29T08:48:58.776Z,6.50
2022-10-29T08:51:31.262Z,6.17
2022-10-29T08:56:54.383Z,6.23
2022-10-29T08:59:29.760Z,7.17
2022-10-29T09:01:57.201Z,7.07
2022-10-29T09:04:33.870Z,6.37
2022-10-29T09:07:24.186Z,6.97
2022-10-29T09:09:57.550Z,5.87
2022-10-29T09:12:30.439Z,5.77
2022-10-29T09:15:15.970Z,5.50
2022-10-29T09:18:01.991Z,5.83
2022-10-29T09:20:47.430Z,5.77
2022-10-29T09:23:28.172Z,5.77
2022-10-29T09:26:03.478Z,5.20
2022-10-29T09:28:56.169Z,6.13
2022-10-29T09:31:31.140Z,5.60
2022-10-29T09:34:01.934Z,5.37
2022-10-29T09:36:30.456Z,5.03
2022-10-29T09:39:02.727Z,5.73
2022-10-29T09:41:33.598Z,5.10
2022-10-29T09:44:03.538Z,5.20
2022-10-29T09:46:35.877Z,5.87
2022-10-29T09:51:42.689Z,5.97
2022-10-29T09:54:09.992Z,5.87
2022-10-29T09:56:40.671Z,5.83
2022-10-29T09:59:17.545Z,5.43
2022-10-29T10:01:44.638Z,5.10
2022-10-29T10:04:14.481Z,5.47
2022-10-29T10:07:01.734Z,5.00
2022-10-29T10:09:28.702Z,5.40
2022-10-29T10:11:59.042Z,5.50
2022-10-29T10:14:27.346Z,4.90
2022-10-29T10:17:00.801Z,5.20
2022-10-29T10:19:29.243Z,5.23
2022-10-29T10:21:58.345Z,5.80
2022-10-29T10:24:35.827Z,4.87
2022-10-29T10:27:22.796Z,4.70
2022-10-29T10:30:05.124Z,5.77
2022-10-29T10:32:32.516Z,5.33
2022-10-29T10:34:59.520Z,4.90
2022-10-29T10:37:26.558Z,5.37
2022-10-29T10:39:58.389Z,5.37
2022-10-29T10:42:34.191Z,5.60
2022-10-29T10:45:02.917Z,5.97
2022-10-29T10:47:31.410Z,5.30
2022-10-29T10:50:26.962Z,5.20
2022-10-29T10:52:55.292Z,5.60
2022-10-29T10:55:26.704Z,5.13
2022-10-29T10:58:01.197Z,5.20
2022-10-29T11:00:30.702Z,5.33
2022-10-29T11:03:09.874Z,5.40
2022-10-29T11:05:40.164Z,5.30
2022-10-29T11:08:11.395Z,5.80
2022-10-29T11:10:46.569Z,5.85
2022-10-29T11:13:15.782Z,5.13
2022-10-29T11:15:58.088Z,5.37
2022-10-29T11:18:30.871Z,5.13
2022-10-29T11:21:06.707Z,5.93
2022-10-29T11:23:43.400Z,4.63
2022-10-29T11:26:29.274Z,5.27
2022-10-29T11:28:59.740Z,5.57
2022-10-29T11:31:45.383Z,4.90
2022-10-29T11:34:17.682Z,5.50
2022-10-29T11:36:49.493Z,5.10
2022-10-29T11:39:32.598Z,5.80
2022-10-29T11:42:00.661Z,5.13
2022-10-29T11:44:28.239Z,5.73
2022-10-29T11:47:16.931Z,5.10
2022-10-29T11:49:43.889Z,5.93
2022-10-29T11:52:36.986Z,5.78
2022-10-29T11:55:13.074Z,5.80
2022-10-29T11:57:41.997Z,6.00
2022-10-29T12:00:14.422Z,6.27
2022-10-29T12:03:00.581Z,6.57
2022-10-29T12:05:36.448Z,6.83
2022-10-29T12:08:18.887Z,6.53
2022-10-29T12:10:58.554Z,5.97
2022-10-29T12:13:32.053Z,5.85
2022-10-29T12:16:13.207Z,6.00
2022-10-29T12:18:51.200Z,5.60
2022-10-29T12:21:37.004Z,6.22
2022-10-29T12:24:22.542Z,6.10
2022-10-29T12:26:49.485Z,6.32
2022-10-29T12:29:34.610Z,6.25
2022-10-29T12:32:11.169Z,5.47
2022-10-29T12:34:38.180Z,5.72
2022-10-29T12:37:18.198Z,5.65
2022-10-29T12:39:49.564Z,5.18
2022-10-29T12:42:26.752Z,5.78
2022-10-29T12:45:12.497Z,4.80
2022-10-29T12:47:43.658Z,5.22
2022-10-29T12:50:13.426Z,5.38
2022-10-29T12:52:49.898Z,5.20
2022-10-29T12:55:17.297Z,5.60
2022-10-29T12:57:44.295Z,5.83
2022-10-29T13:00:27.232Z,6.27
2022-10-29T13:02:55.232Z,6.30
2022-10-29T13:05:34.794Z,6.13
2022-10-29T13:08:04.514Z,5.68
2022-10-29T13:10:31.531Z,5.53
2022-10-29T13:13:01.548Z,6.07
2022-10-29T13:15:30.258Z,5.80
2022-10-29T13:17:58.882Z,5.77
2022-10-29T13:20:28.373Z,7.20
2022-10-29T13:22:59.066Z,5.60
2022-10-29T13:25:37.999Z,6.47
2022-10-29T13:28:27.966Z,5.32
2022-10-29T13:31:14.905Z,5.88
2022-10-29T13:33:41.861Z,6.03
2022-10-29T13:36:18.973Z,5.60
2022-10-29T13:39:04.269Z,5.43
2022-10-29T13:41:50.049Z,5.43
2022-10-29T13:44:18.311Z,5.15
2022-10-29T13:46:45.989Z,5.60
2022-10-29T13:49:15.859Z,5.10
2022-10-29T13:51:50.039Z,5.63
2022-10-29T13:54:24.916Z,5.70
2022-10-29T13:57:04.662Z,5.10
2022-10-29T13:59:46.626Z,5.63
2022-10-29T14:02:29.018Z,5.45
2022-10-29T14:04:58.851Z,5.37
2022-10-29T14:07:29.679Z,6.00
2022-10-29T14:09:59.868Z,5.53
2022-10-29T14:12:30.060Z,6.80
2022-10-29T14:15:03.182Z,6.07
2022-10-29T14:17:30.478Z,6.33
2022-10-29T14:19:57.734Z,5.38
2022-10-29T14:22:33.303Z,6.20
2022-10-29T14:25:01.992Z,5.63
2022-10-29T14:27:29.414Z,5.53
2022-10-29T14:30:12.484Z,5.07
2022-10-29T14:32:40.525Z,6.18
2022-10-29T14:35:07.803Z,6.57
2022-10-29T14:37:37.966Z,6.70
2022-10-29T14:40:17.079Z,6.60
2022-10-29T14:42:45.971Z,7.17
2022-10-29T14:45:25.321Z,7.00
2022-10-29T14:47:53.603Z,7.20
2022-10-29T14:50:25.901Z,7.20
2022-10-29T14:53:09.770Z,6.90
2022-10-29T14:55:38.828Z,7.40
2022-10-29T14:58:15.532Z,7.07
2022-10-29T15:00:54.020Z,7.17
2022-10-29T15:03:23.160Z,6.43
2022-10-29T15:05:50.407Z,6.70
2022-10-29T15:08:24.023Z,7.33
2022-10-29T15:10:58.324Z,7.57
2022-10-29T15:13:28.494Z,6.90
2022-10-29T15:16:00.063Z,6.97
2022-10-29T15:18:27.438Z,7.53
2022-10-29T15:20:55.783Z,7.37
2022-10-29T15:23:41.724Z,6.90
2022-10-29T15:26:17.344Z,6.93
2022-10-29T15:28:55.128Z,6.97
2022-10-29T15:31:43.047Z,7.33
2022-10-29T15:34:16.205Z,7.17
2022-10-29T15:36:52.643Z,7.03
2022-10-29T15:39:21.442Z,7.73
2022-10-29T15:41:49.505Z,6.97
2022-10-29T15:44:30.904Z,7.53
2022-10-29T15:46:59.193Z,7.37
2022-10-29T15:49:31.324Z,7.60
2022-10-29T15:52:00.620Z,7.13
2022-10-29T15:54:28.239Z,7.80
2022-10-29T15:56:55.213Z,6.97
2022-10-29T15:59:24.163Z,7.40
2022-10-29T16:01:51.278Z,9.40
2022-10-29T16:04:18.457Z,9.80
2022-10-29T16:06:45.434Z,9.70
2022-10-29T16:09:18.598Z,9.00
2022-10-29T16:11:45.894Z,9.33
2022-10-29T16:14:12.934Z,10.37
2022-10-29T16:16:39.947Z,9.27
2022-10-29T16:19:07.135Z,9.57
2022-10-29T16:21:34.197Z,9.17
2022-10-29T16:24:01.254Z,9.10
2022-10-29T16:26:28.215Z,10.00
2022-10-29T16:28:55.254Z,10.33
2022-10-29T16:31:24.370Z,9.63
2022-10-29T16:33:52.897Z,10.07
2022-10-29T16:36:19.873Z,9.47
2022-10-29T16:38:46.865Z,9.90
2022-10-29T16:41:18.976Z,10.70
2022-10-29T16:43:46.276Z,9.33
2022-10-29T16:46:13.663Z,9.20
2022-10-29T16:48:41.093Z,9.83
2022-10-29T16:51:08.414Z,10.10
2022-10-29T16:53:35.466Z,9.83
2022-10-29T16:56:02.465Z,10.47
2022-10-29T16:58:29.556Z,11.97
2022-10-29T17:01:03.618Z,10.83
2022-10-29T17:03:31.068Z,10.73
2022-10-29T17:06:02.541Z,12.10
2022-10-29T17:08:35.981Z,11.43
2022-10-29T17:11:05.790Z,11.03
2022-10-29T17:13:32.801Z,11.40
2022-10-29T17:15:59.767Z,11.07
2022-10-29T17:18:26.733Z,11.37
2022-10-29T17:21:01.008Z,10.93
2022-10-29T17:23:28.705Z,10.20
2022-10-29T17:25:56.553Z,10.83
2022-10-29T17:28:24.138Z,10.70
2022-10-29T17:30:51.106Z,11.13
2022-10-29T17:33:18.396Z,10.77
2022-10-29T17:35:45.460Z,9.43
2022-10-29T17:38:12.499Z,9.93
2022-10-29T17:40:39.801Z,9.33
2022-10-29T17:43:06.852Z,10.50
2022-10-29T17:45:33.905Z,10.85
2022-10-29T17:48:01.230Z,9.87
2022-10-29T17:50:28.385Z,10.67
2022-10-29T17:52:57.745Z,10.73
2022-10-29T17:55:25.082Z,10.30
2022-10-29T17:57:52.028Z,11.23
2022-10-29T18:00:19.200Z,11.30
2022-10-29T18:02:49.675Z,9.97
2022-10-29T18:05:16.790Z,10.87
2022-10-29T18:07:43.802Z,11.50
2022-10-29T18:10:11.012Z,11.13
2022-10-29T18:12:38.044Z,11.27
2022-10-29T18:15:05.560Z,11.37
2022-10-29T18:17:32.738Z,11.10
2022-10-29T18:19:59.713Z,10.40
2022-10-29T18:22:26.710Z,11.77
2022-10-29T18:24:53.739Z,12.23
2022-10-29T18:27:20.771Z,11.27
2022-10-29T18:29:47.844Z,11.03
2022-10-29T18:32:14.798Z,11.03
2022-10-29T18:34:41.770Z,12.33
2022-10-29T18:37:08.849Z,12.43
2022-10-29T18:39:35.874Z,11.50
2022-10-29T18:42:02.910Z,13.17
2022-10-29T18:44:30.241Z,11.33
2022-10-29T18:46:57.309Z,11.77
2022-10-29T18:49:24.366Z,12.40
2022-10-29T18:51:53.458Z,12.17
2022-10-29T18:54:20.545Z,13.70
2022-10-29T18:56:47.541Z,14.93
2022-10-29T18:59:14.634Z,16.15
2022-10-29T19:01:41.746Z,14.30
2022-10-29T19:04:10.045Z,13.23
2022-10-29T19:06:37.612Z,12.27
2022-10-29T19:09:08.039Z,13.20
2022-10-29T19:11:35.356Z,13.13
2022-10-29T19:14:03.867Z,13.07
2022-10-29T19:16:31.678Z,12.87
2022-10-29T19:18:59.878Z,12.63
2022-10-29T19:21:27.478Z,12.27
2022-10-29T19:23:55.892Z,12.40
2022-10-29T19:26:23.397Z,12.87
2022-10-29T19:28:50.435Z,11.30
2022-10-29T19:31:18.883Z,11.57
2022-10-29T19:33:49.488Z,11.27
2022-10-29T19:36:16.566Z,13.50
2022-10-29T19:38:43.726Z,14.73
2022-10-29T19:41:12.226Z,12.60
2022-10-29T19:43:39.362Z,13.93
2022-10-29T19:46:08.073Z,13.47
2022-10-29T19:48:35.261Z,12.87
2022-10-29T19:51:02.429Z,13.07
2022-10-29T19:53:29.418Z,13.00
2022-10-29T19:55:56.560Z,12.33
2022-10-29T19:58:24.955Z,11.50
2022-10-29T20:00:52.187Z,11.80
2022-10-29T20:03:19.482Z,11.10
2022-10-29T20:05:46.809Z,11.27
2022-10-29T20:08:16.045Z,11.97
2022-10-29T20:10:43.780Z,11.60
2022-10-29T20:13:10.748Z,12.43
2022-10-29T20:15:39.324Z,11.93
2022-10-29T20:18:06.432Z,11.50
2022-10-29T20:20:33.506Z,12.23
2022-10-29T20:23:01.051Z,11.43
2022-10-29T20:25:28.523Z,12.40
2022-10-29T20:27:55.593Z,11.60
2022-10-29T20:30:22.636Z,11.53
2022-10-29T20:32:49.854Z,10.77
2022-10-29T20:35:17.321Z,11.43
2022-10-29T20:37:44.291Z,11.23
2022-10-29T20:40:11.763Z,11.93
2022-10-29T20:42:38.752Z,11.87
2022-10-29T20:45:06.067Z,11.73
2022-10-29T20:47:33.021Z,12.03
2022-10-29T20:50:00.016Z,11.37
2022-10-29T20:52:27.623Z,11.17
2022-10-29T20:54:54.584Z,11.37
2022-10-29T20:57:21.558Z,12.70
2022-10-29T20:59:48.616Z,12.73
2022-10-29T21:02:15.817Z,13.93
2022-10-29T21:04:42.896Z,12.93
2022-10-29T21:07:09.864Z,15.13
2022-10-29T21:09:36.829Z,13.30
2022-10-29T21:12:03.849Z,14.17
2022-10-29T21:14:30.804Z,14.60
2022-10-29T21:16:57.786Z,14.03
2022-10-29T21:19:25.749Z,13.30
2022-10-29T21:21:52.722Z,13.57
2022-10-29T21:24:20.211Z,14.13
2022-10-29T21:26:47.166Z,13.17
2022-10-29T21:29:14.153Z,13.73
2022-10-29T21:31:41.134Z,12.03
2022-10-29T21:34:08.128Z,11.93
2022-10-29T21:36:35.151Z,10.70
2022-10-29T21:39:02.127Z,10.00
2022-10-29T21:41:29.082Z,10.63
2022-10-29T21:43:56.125Z,10.87
2022-10-29T21:46:23.085Z,9.97
2022-10-29T21:48:50.067Z,9.53
2022-10-29T21:51:17.260Z,9.43
2022-10-29T21:53:44.317Z,9.17
2022-10-29T21:56:12.627Z,9.67
2022-10-29T21:58:39.625Z,8.90
2022-10-29T22:01:11.037Z,9.67
2022-10-29T22:03:40.476Z,10.73
2022-10-29T22:06:10.569Z,10.07
2022-10-29T22:08:37.586Z,9.37
2022-10-29T22:11:04.844Z,10.27
2022-10-29T22:13:32.488Z,10.77
2022-10-29T22:15:59.650Z,11.67
2022-10-29T22:18:26.679Z,12.07
2022-10-29T22:21:12.650Z,12.37
2022-10-29T22:23:43.560Z,14.13
2022-10-29T22:26:10.601Z,13.90
2022-10-29T22:28:37.697Z,13.47
2022-10-29T22:31:05.239Z,14.17
2022-10-29T22:33:32.485Z,14.77
2022-10-29T22:36:06.134Z,15.20
2022-10-29T22:38:33.289Z,14.30
2022-10-29T22:41:04.032Z,15.43
2022-10-29T22:43:31.010Z,13.97
2022-10-29T22:45:58.138Z,14.50
2022-10-29T22:48:25.118Z,12.90
2022-10-29T22:50:58.967Z,14.10
2022-10-29T22:53:25.954Z,13.33
2022-10-29T22:55:53.285Z,13.37
2022-10-29T22:58:20.814Z,14.37
2022-10-29T23:00:47.935Z,13.80
2022-10-29T23:03:14.967Z,14.40
2022-10-29T23:05:41.959Z,15.17
2022-10-29T23:08:08.975Z,14.53
2022-10-29T23:10:36.624Z,14.00
2022-10-29T23:13:03.610Z,14.50
2022-10-29T23:15:30.878Z,12.83
2022-10-29T23:17:58.121Z,14.90
2022-10-29T23:20:25.344Z,13.50
2022-10-29T23:22:52.609Z,14.50
2022-10-29T23:25:19.600Z,12.83
2022-10-29T23:27:46.561Z,13.30
2022-10-29T23:30:13.711Z,14.03
2022-10-29T23:32:40.701Z,13.13
2022-10-29T23:35:07.872Z,13.63
2022-10-29T23:37:34.890Z,13.20
2022-10-29T23:40:01.860Z,13.50
2022-10-29T23:42:28.827Z,13.10
2022-10-29T23:44:56.130Z,13.43
2022-10-29T23:47:23.158Z,13.47
2022-10-29T23:49:50.278Z,12.33
2022-10-29T23:52:17.251Z,12.57
2022-10-29T23:54:44.220Z,12.60
2022-10-29T23:57:11.265Z,12.07
2022-10-29T23:59:38.334Z,13.07
